createdAt,value
2023-03-03T00:01:21.026Z,102020.78
2023-03-03T00:03:48.013Z,102019.88
2023-03-03T00:06:15.444Z,102023.47
2023-03-03T00:08:42.869Z,102022.53
2023-03-03T00:11:11.148Z,102035.81
2023-03-03T00:13:53.724Z,102031.38
2023-03-03T00:16:37.457Z,102028.72
2023-03-03T00:19:17.316Z,102031.38
2023-03-03T00:21:51.154Z,102034.88
2023-03-03T00:24:23.748Z,102033.09
2023-03-03T00:26:57.327Z,102034.00
2023-03-03T00:29:45.069Z,102038.41
2023-03-03T00:32:15.382Z,102047.31
2023-03-03T00:34:44.189Z,102040.22
2023-03-03T00:37:33.939Z,102049.09
2023-03-03T00:40:31.747Z,102045.53
2023-03-03T00:43:00.665Z,102044.66
2023-03-03T00:45:47.498Z,102053.56
2023-03-03T00:48:35.647Z,102046.53
2023-03-03T00:51:16.925Z,102047.44
2023-03-03T00:53:43.737Z,102051.00
2023-03-03T00:56:10.686Z,102049.22
2023-03-03T00:58:37.545Z,102052.84
2023-03-03T01:01:05.108Z,102058.16
2023-03-03T01:03:44.189Z,102065.28
2023-03-03T01:06:14.210Z,102054.63
2023-03-03T01:08:41.268Z,102062.66
2023-03-03T01:11:19.883Z,102060.00
2023-03-03T01:13:51.036Z,102068.00
2023-03-03T01:16:18.819Z,102071.53
2023-03-03T01:18:46.349Z,102067.13
2023-03-03T01:21:13.662Z,102071.53
2023-03-03T01:23:40.497Z,102077.78
2023-03-03T01:26:07.671Z,102070.75
2023-03-03T01:28:34.918Z,102076.97
2023-03-03T01:31:04.863Z,102081.41
2023-03-03T01:33:33.963Z,102076.06
2023-03-03T01:36:02.647Z,102080.50
2023-03-03T01:38:29.868Z,102081.38
2023-03-03T01:41:00.043Z,102070.69
2023-03-03T01:43:29.205Z,102076.91
2023-03-03T01:45:58.903Z,102076.00
2023-03-03T01:48:34.518Z,102077.72
2023-03-03T01:51:05.909Z,102088.41
2023-03-03T01:53:51.592Z,102077.75
2023-03-03T01:56:19.239Z,102080.44
2023-03-03T01:58:52.473Z,102090.22
2023-03-03T02:01:28.648Z,102083.09
2023-03-03T02:03:57.995Z,102087.56
2023-03-03T02:06:34.081Z,102084.91
2023-03-03T02:09:14.551Z,102086.69
2023-03-03T02:11:45.033Z,102084.91
2023-03-03T02:14:12.766Z,102079.59
2023-03-03T02:16:43.625Z,102086.69
2023-03-03T02:19:39.504Z,102081.31
2023-03-03T02:22:06.782Z,102090.22
2023-03-03T02:24:53.834Z,102087.56
2023-03-03T02:27:21.054Z,102079.56
2023-03-03T02:29:47.997Z,102084.88
2023-03-03T02:32:14.972Z,102088.44
2023-03-03T02:34:52.969Z,102084.03
2023-03-03T02:37:20.711Z,102084.88
2023-03-03T02:39:48.209Z,102083.09
2023-03-03T02:42:21.983Z,102079.50
2023-03-03T02:44:53.227Z,102080.38
2023-03-03T02:47:20.044Z,102076.84
2023-03-03T02:49:46.884Z,102079.50
2023-03-03T02:52:14.950Z,102078.66
2023-03-03T02:54:45.310Z,102073.34
2023-03-03T02:57:12.659Z,102075.13
2023-03-03T02:59:39.539Z,102070.72
2023-03-03T03:02:12.973Z,102080.44
2023-03-03T03:04:39.916Z,102079.50
2023-03-03T03:07:07.047Z,102085.69
2023-03-03T03:09:36.525Z,102075.97
2023-03-03T03:12:05.276Z,102074.25
2023-03-03T03:14:34.260Z,102081.38
2023-03-03T03:17:01.551Z,102086.69
2023-03-03T03:19:29.222Z,102086.69
2023-03-03T03:21:58.677Z,102090.28
2023-03-03T03:24:26.332Z,102094.72
2023-03-03T03:26:58.002Z,102089.41
2023-03-03T03:29:26.824Z,102092.13
2023-03-03T03:31:54.101Z,102094.81
2023-03-03T03:34:21.071Z,102097.53
2023-03-03T03:36:49.636Z,102086.88
2023-03-03T03:39:17.742Z,102086.84
2023-03-03T03:41:47.377Z,102096.59
2023-03-03T03:44:14.928Z,102095.72
2023-03-03T03:46:42.733Z,102089.50
2023-03-03T03:49:10.654Z,102092.16
2023-03-03T03:51:41.344Z,102092.16
2023-03-03T03:54:10.183Z,102093.06
2023-03-03T03:56:38.375Z,102097.47
2023-03-03T03:59:08.790Z,102099.25
2023-03-03T04:01:36.799Z,102090.38
2023-03-03T04:04:05.102Z,102095.69
2023-03-03T04:06:32.882Z,102101.84
2023-03-03T04:09:00.596Z,102103.63
2023-03-03T04:11:29.450Z,102101.84
2023-03-03T04:13:56.386Z,102099.13
2023-03-03T04:16:23.446Z,102102.66
2023-03-03T04:18:51.043Z,102096.47
2023-03-03T04:21:18.052Z,102092.88
2023-03-03T04:23:46.376Z,102098.25
2023-03-03T04:26:13.547Z,102095.59
2023-03-03T04:28:41.742Z,102100.91
2023-03-03T04:31:08.747Z,102099.13
2023-03-03T04:33:36.250Z,102103.56
2023-03-03T04:36:05.440Z,102104.44
2023-03-03T04:38:32.919Z,102107.06
2023-03-03T04:41:00.003Z,102099.06
2023-03-03T04:43:29.691Z,102103.50
2023-03-03T04:45:57.577Z,102102.59
2023-03-03T04:48:24.541Z,102104.38
2023-03-03T04:50:51.898Z,102107.91
2023-03-03T04:53:19.810Z,102111.47
2023-03-03T04:55:46.749Z,102105.22
2023-03-03T04:58:13.586Z,102105.22
2023-03-03T05:00:40.603Z,102106.09
2023-03-03T05:03:12.901Z,102109.63
2023-03-03T05:05:41.742Z,102106.94
2023-03-03T05:08:08.635Z,102106.03
2023-03-03T05:10:35.555Z,102112.19
2023-03-03T05:13:02.496Z,102126.34
2023-03-03T05:15:29.315Z,102116.63
2023-03-03T05:17:56.534Z,102129.00
2023-03-03T05:20:25.205Z,102113.94
2023-03-03T05:22:52.717Z,102113.06
2023-03-03T05:25:19.676Z,102114.81
2023-03-03T05:27:46.662Z,102117.47
2023-03-03T05:30:13.810Z,102113.03
2023-03-03T05:32:40.685Z,102115.69
2023-03-03T05:35:08.276Z,102112.97
2023-03-03T05:37:35.155Z,102110.28
2023-03-03T05:40:02.067Z,102117.34
2023-03-03T05:42:28.976Z,102117.34
2023-03-03T05:44:56.096Z,102116.41
2023-03-03T05:47:22.994Z,102111.16
2023-03-03T05:49:49.845Z,102115.53
2023-03-03T05:52:16.677Z,102115.53
2023-03-03T05:54:43.720Z,102118.19
2023-03-03T05:57:10.601Z,102113.72
2023-03-03T05:59:37.646Z,102116.38
2023-03-03T06:02:04.582Z,102115.47
2023-03-03T06:04:31.582Z,102117.25
2023-03-03T06:06:58.427Z,102114.59
2023-03-03T06:09:26.314Z,102119.03
2023-03-03T06:11:53.579Z,102126.09
2023-03-03T06:14:21.222Z,102132.34
2023-03-03T06:16:51.213Z,102133.19
2023-03-03T06:19:18.451Z,102141.13
2023-03-03T06:21:45.391Z,102141.13
2023-03-03T06:24:12.612Z,102140.22
2023-03-03T06:26:39.604Z,102148.16
2023-03-03T06:29:06.853Z,102153.47
2023-03-03T06:31:34.140Z,102151.69
2023-03-03T06:34:00.900Z,102154.28
2023-03-03T06:36:28.122Z,102162.22
2023-03-03T06:38:54.932Z,102165.75
2023-03-03T06:41:21.731Z,102167.44
2023-03-03T06:43:48.527Z,102168.31
2023-03-03T06:46:15.406Z,102171.91
2023-03-03T06:48:42.199Z,102178.13
2023-03-03T06:51:23.715Z,102177.25
2023-03-03T06:53:55.864Z,102184.38
2023-03-03T06:56:25.904Z,102186.16
2023-03-03T06:59:00.520Z,102188.84
2023-03-03T07:01:34.693Z,102189.72
2023-03-03T07:04:01.978Z,102185.28
2023-03-03T07:06:30.137Z,102187.00
2023-03-03T07:08:58.075Z,102194.03
2023-03-03T07:11:24.960Z,102194.91
2023-03-03T07:13:54.974Z,102194.84
2023-03-03T07:16:28.157Z,102195.69
2023-03-03T07:19:05.480Z,102191.22
2023-03-03T07:21:36.983Z,102192.16
2023-03-03T07:24:37.215Z,102206.31
2023-03-03T07:27:19.824Z,102208.97
2023-03-03T07:29:53.468Z,102210.72
2023-03-03T07:32:42.146Z,102213.38
2023-03-03T07:35:43.459Z,102217.81
2023-03-03T07:38:31.507Z,102215.16
2023-03-03T07:41:01.952Z,102209.75
2023-03-03T07:43:43.976Z,102220.38
2023-03-03T07:46:10.744Z,102219.44
2023-03-03T07:48:41.894Z,102231.81
2023-03-03T07:51:36.431Z,102224.66
2023-03-03T07:54:35.227Z,102228.19
2023-03-03T07:57:20.811Z,102231.78
2023-03-03T07:59:56.598Z,102233.50
2023-03-03T08:02:45.926Z,102242.31
2023-03-03T08:05:31.539Z,102230.75
2023-03-03T08:08:10.465Z,102231.56
2023-03-03T08:10:52.604Z,102240.41
2023-03-03T08:13:29.020Z,102245.75
2023-03-03T08:15:58.887Z,102242.25
2023-03-03T08:18:36.052Z,102248.44
2023-03-03T08:21:13.200Z,102238.72
2023-03-03T08:23:40.139Z,102249.38
2023-03-03T08:26:07.797Z,102257.38
2023-03-03T08:28:34.565Z,102255.56
2023-03-03T08:31:15.267Z,102262.63
2023-03-03T08:33:45.524Z,102268.91
2023-03-03T08:36:13.041Z,102264.44
2023-03-03T08:38:41.205Z,102273.25
2023-03-03T08:41:08.632Z,102274.09
2023-03-03T08:43:35.659Z,102269.63
2023-03-03T08:46:06.013Z,102273.13
2023-03-03T08:48:34.461Z,102275.72
2023-03-03T08:51:01.476Z,102269.44
2023-03-03T08:53:29.153Z,102274.78
2023-03-03T08:55:56.124Z,102273.88
2023-03-03T08:58:33.595Z,102278.28
2023-03-03T09:01:01.809Z,102282.63
2023-03-03T09:03:28.733Z,102280.69
2023-03-03T09:05:55.759Z,102285.16
2023-03-03T09:08:22.619Z,102291.31
2023-03-03T09:10:49.465Z,102286.91
2023-03-03T09:13:19.612Z,102284.16
2023-03-03T09:15:49.025Z,102288.44
2023-03-03T09:18:42.627Z,102281.16
2023-03-03T09:21:29.234Z,102292.50
2023-03-03T09:24:01.110Z,102280.84
2023-03-03T09:26:32.171Z,102291.50
2023-03-03T09:29:14.017Z,102287.16
2023-03-03T09:31:51.762Z,102293.34
2023-03-03T09:34:49.012Z,102296.75
2023-03-03T09:37:36.516Z,102298.38
2023-03-03T09:40:55.979Z,102307.22
2023-03-03T09:43:46.763Z,102297.38
2023-03-03T09:46:38.010Z,102308.03
2023-03-03T09:49:33.582Z,102307.03
2023-03-03T09:52:26.688Z,102307.69
2023-03-03T09:55:11.362Z,102312.66
2023-03-03T09:58:17.376Z,102300.78
2023-03-03T10:01:02.746Z,102292.69
2023-03-03T10:03:59.479Z,102304.09
2023-03-03T10:06:47.006Z,102302.16
2023-03-03T10:09:41.198Z,102303.88
2023-03-03T10:12:44.695Z,102303.88
2023-03-03T10:15:54.238Z,102308.34
2023-03-03T10:19:21.263Z,102309.19
2023-03-03T10:22:16.288Z,102306.56
2023-03-03T10:25:28.719Z,102305.81
2023-03-03T10:28:35.468Z,102312.22
2023-03-03T10:31:29.491Z,102306.00
2023-03-03T10:34:32.912Z,102306.50
2023-03-03T10:37:17.655Z,102312.44
2023-03-03T10:40:21.983Z,102304.19
2023-03-03T10:44:02.095Z,102313.16
2023-03-03T10:47:02.398Z,102309.78
2023-03-03T10:50:55.200Z,102307.00
2023-03-03T10:53:31.737Z,102299.78
2023-03-03T10:56:51.751Z,102308.56
2023-03-03T10:59:55.807Z,102310.84
2023-03-03T11:02:55.668Z,102311.28
2023-03-03T11:05:47.956Z,102312.19
2023-03-03T11:08:27.070Z,102308.13
2023-03-03T11:11:20.255Z,102309.50
2023-03-03T11:14:20.198Z,102311.16
2023-03-03T11:17:02.620Z,102316.22
2023-03-03T11:19:38.469Z,102307.03
2023-03-03T11:22:20.439Z,102299.88
2023-03-03T11:25:11.313Z,102307.09
2023-03-03T11:28:06.030Z,102297.69
2023-03-03T11:30:57.056Z,102298.00
2023-03-03T11:33:45.014Z,102298.47
2023-03-03T11:36:34.930Z,102294.22
2023-03-03T11:39:16.622Z,102290.19
2023-03-03T11:42:08.481Z,102285.56
2023-03-03T11:44:52.552Z,102289.22
2023-03-03T11:47:31.754Z,102290.09
2023-03-03T11:50:20.498Z,102291.75
2023-03-03T11:53:38.444Z,102284.84
2023-03-03T11:56:46.816Z,102283.91
2023-03-03T11:59:49.243Z,102281.22
2023-03-03T12:02:58.013Z,102288.13
2023-03-03T12:06:03.365Z,102279.78
2023-03-03T12:08:47.189Z,102279.56
2023-03-03T12:11:16.901Z,102282.81
2023-03-03T12:14:02.874Z,102281.53
2023-03-03T12:16:56.866Z,102274.56
2023-03-03T12:19:44.366Z,102267.53
2023-03-03T12:23:04.482Z,102269.25
2023-03-03T12:25:59.275Z,102263.06
2023-03-03T12:28:36.300Z,102259.16
2023-03-03T12:31:22.781Z,102258.16
2023-03-03T12:34:04.183Z,102259.63
2023-03-03T12:37:25.374Z,102260.19
2023-03-03T12:40:03.842Z,102252.56
2023-03-03T12:42:37.056Z,102254.53
2023-03-03T12:45:56.519Z,102254.19
2023-03-03T12:48:40.469Z,102252.84
2023-03-03T12:51:15.153Z,102244.94
2023-03-03T12:54:11.015Z,102236.84
2023-03-03T12:56:48.819Z,102241.72
2023-03-03T12:59:32.307Z,102239.31
2023-03-03T13:02:26.790Z,102234.13
2023-03-03T13:05:38.938Z,102236.25
2023-03-03T13:08:31.822Z,102236.25
2023-03-03T13:11:21.517Z,102237.03
2023-03-03T13:14:14.447Z,102230.81
2023-03-03T13:17:11.552Z,102229.63
2023-03-03T13:19:48.864Z,102228.06
2023-03-03T13:22:36.664Z,102234.25
2023-03-03T13:25:31.315Z,102221.78
2023-03-03T13:28:18.270Z,102223.94
2023-03-03T13:30:51.122Z,102225.88
2023-03-03T13:33:29.221Z,102223.44
2023-03-03T13:36:09.850Z,102218.16
2023-03-03T13:38:57.383Z,102218.97
2023-03-03T13:41:34.891Z,102220.44
2023-03-03T13:44:42.767Z,102218.91
2023-03-03T13:47:14.148Z,102216.75
2023-03-03T13:49:59.334Z,102215.84
2023-03-03T13:52:34.305Z,102217.78
2023-03-03T13:55:29.444Z,102215.19
2023-03-03T13:58:41.985Z,102208.84
2023-03-03T14:01:32.938Z,102216.59
2023-03-03T14:04:48.176Z,102200.78
2023-03-03T14:07:28.520Z,102203.16
2023-03-03T14:10:25.936Z,102202.84
2023-03-03T14:13:08.308Z,102202.09
2023-03-03T14:15:50.911Z,102199.38
2023-03-03T14:18:44.944Z,102200.25
2023-03-03T14:21:27.866Z,102196.44
2023-03-03T14:24:17.137Z,102183.31
2023-03-03T14:26:57.861Z,102184.97
2023-03-03T14:29:27.654Z,102177.78
2023-03-03T14:32:20.587Z,102185.19
2023-03-03T14:34:59.500Z,102188.94
2023-03-03T14:37:43.750Z,102189.84
2023-03-03T14:40:23.085Z,102186.81
2023-03-03T14:42:52.622Z,102183.69
2023-03-03T14:45:37.779Z,102184.81
2023-03-03T14:48:24.750Z,102176.75
2023-03-03T14:51:15.112Z,102180.66
2023-03-03T14:53:49.072Z,102181.09
2023-03-03T14:56:29.282Z,102175.38
2023-03-03T14:59:21.468Z,102176.81
2023-03-03T15:02:17.444Z,102171.69
2023-03-03T15:04:46.951Z,102179.75
2023-03-03T15:07:33.336Z,102167.03
2023-03-03T15:10:00.872Z,102162.34
2023-03-03T15:12:35.043Z,102162.59
2023-03-03T15:15:05.422Z,102162.53
2023-03-03T15:17:43.445Z,102159.91
2023-03-03T15:20:45.357Z,102154.97
2023-03-03T15:23:44.132Z,102153.66
2023-03-03T15:26:38.384Z,102144.59
2023-03-03T15:29:22.832Z,102144.59
2023-03-03T15:32:23.529Z,102138.34
2023-03-03T15:35:20.268Z,102135.75
2023-03-03T15:38:20.836Z,102136.13
2023-03-03T15:41:15.239Z,102125.75
2023-03-03T15:44:10.699Z,102128.16
2023-03-03T15:46:48.419Z,102127.69
2023-03-03T15:49:59.696Z,102126.72
2023-03-03T15:53:17.104Z,102126.06
2023-03-03T15:56:31.458Z,102135.97
2023-03-03T15:59:45.092Z,102127.53
2023-03-03T16:02:26.230Z,102128.00
2023-03-03T16:05:01.535Z,102125.00
2023-03-03T16:08:02.004Z,102121.22
2023-03-03T16:10:59.571Z,102116.91
2023-03-03T16:13:32.068Z,102119.31
2023-03-03T16:16:13.819Z,102122.00
2023-03-03T16:19:05.996Z,102126.59
2023-03-03T16:22:07.870Z,102124.31
2023-03-03T16:24:54.306Z,102126.88
2023-03-03T16:27:44.568Z,102127.06
2023-03-03T16:30:46.721Z,102127.09
2023-03-03T16:33:33.802Z,102134.16
2023-03-03T16:36:20.168Z,102133.84
2023-03-03T16:39:06.082Z,102137.28
2023-03-03T16:42:00.566Z,102141.69
2023-03-03T16:45:24.790Z,102147.72
2023-03-03T16:48:02.867Z,102142.38
2023-03-03T16:50:48.171Z,102142.81
2023-03-03T16:53:51.644Z,102148.50
2023-03-03T16:56:50.213Z,102150.69
2023-03-03T16:59:35.542Z,102158.13
2023-03-03T17:02:26.544Z,102174.47
2023-03-03T17:05:12.394Z,102156.81
2023-03-03T17:07:57.785Z,102170.56
2023-03-03T17:10:59.512Z,102169.94
2023-03-03T17:13:59.517Z,102174.59
2023-03-03T17:16:53.358Z,102175.63
2023-03-03T17:20:01.580Z,102178.41
2023-03-03T17:23:02.090Z,102172.28
2023-03-03T17:25:46.836Z,102178.69
2023-03-03T17:28:37.584Z,102178.88
2023-03-03T17:31:27.538Z,102181.75
2023-03-03T17:34:58.972Z,102187.28
2023-03-03T17:37:58.508Z,102191.00
2023-03-03T17:41:03.438Z,102197.31
2023-03-03T17:44:27.926Z,102193.88
2023-03-03T17:47:47.500Z,102198.44
2023-03-03T17:50:54.964Z,102204.81
2023-03-03T17:53:45.060Z,102210.22
2023-03-03T17:59:32.445Z,102215.78
2023-03-03T18:02:41.195Z,102216.81
2023-03-03T18:05:44.679Z,102217.81
2023-03-03T18:08:35.635Z,102220.53
2023-03-03T18:11:23.846Z,102222.31
2023-03-03T18:13:56.439Z,102225.91
2023-03-03T18:17:00.581Z,102225.06
2023-03-03T18:19:56.856Z,102222.47
2023-03-03T18:22:31.991Z,102227.00
2023-03-03T18:25:16.034Z,102227.94
2023-03-03T18:27:45.135Z,102229.78
2023-03-03T18:30:27.092Z,102235.28
2023-03-03T18:32:56.956Z,102222.91
2023-03-03T18:35:45.874Z,102236.28
2023-03-03T18:38:15.936Z,102231.72
2023-03-03T18:41:09.819Z,102245.16
2023-03-03T18:43:45.726Z,102235.41
2023-03-03T18:46:35.123Z,102239.00
2023-03-03T18:49:10.945Z,102246.25
2023-03-03T18:51:40.829Z,102244.63
2023-03-03T18:54:17.281Z,102252.03
2023-03-03T18:56:50.462Z,102248.63
2023-03-03T18:59:35.796Z,102248.59
2023-03-03T19:02:29.961Z,102246.75
2023-03-03T19:05:11.971Z,102252.13
2023-03-03T19:07:41.843Z,102251.22
2023-03-03T19:10:21.478Z,102254.69
2023-03-03T19:12:52.806Z,102251.94
2023-03-03T19:15:33.924Z,102251.09
2023-03-03T19:18:19.575Z,102252.94
2023-03-03T19:20:59.756Z,102252.88
2023-03-03T19:24:00.629Z,102251.94
2023-03-03T19:26:30.467Z,102262.59
2023-03-03T19:29:21.702Z,102252.81
2023-03-03T19:31:57.829Z,102257.22
2023-03-03T19:35:12.488Z,102254.63
2023-03-03T19:38:04.706Z,102248.50
2023-03-03T19:40:51.036Z,102254.72
2023-03-03T19:43:36.759Z,102251.94
2023-03-03T19:46:41.703Z,102251.88
2023-03-03T19:49:20.782Z,102248.34
2023-03-03T19:52:41.906Z,102255.56
2023-03-03T19:55:24.248Z,102252.03
2023-03-03T19:58:31.388Z,102264.50
2023-03-03T20:01:31.859Z,102253.78
2023-03-03T20:04:33.904Z,102256.47
2023-03-03T20:07:33.679Z,102263.47
2023-03-03T20:10:31.953Z,102260.75
2023-03-03T20:13:23.010Z,102263.53
2023-03-03T20:15:59.029Z,102266.28
2023-03-03T20:19:09.793Z,102262.66
2023-03-03T20:22:35.495Z,102270.72
2023-03-03T20:25:34.726Z,102268.03
2023-03-03T20:28:38.840Z,102277.88
2023-03-03T20:31:28.597Z,102273.56
2023-03-03T20:34:14.404Z,102278.06
2023-03-03T20:37:04.270Z,102281.56
2023-03-03T20:40:04.658Z,102278.94
2023-03-03T20:43:16.871Z,102278.94
2023-03-03T20:45:56.285Z,102286.19
2023-03-03T20:49:07.345Z,102285.28
2023-03-03T20:51:55.810Z,102279.94
2023-03-03T20:54:56.895Z,102288.88
2023-03-03T20:57:34.176Z,102289.91
2023-03-03T21:00:05.294Z,102283.72
2023-03-03T21:03:18.692Z,102286.38
2023-03-03T21:06:01.046Z,102289.97
2023-03-03T21:08:56.819Z,102290.88
2023-03-03T21:11:32.726Z,102287.22
2023-03-03T21:14:16.595Z,102286.31
2023-03-03T21:16:43.552Z,102288.03
2023-03-03T21:19:22.484Z,102283.44
2023-03-03T21:21:50.522Z,102293.34
2023-03-03T21:24:19.903Z,102273.63
2023-03-03T21:26:57.119Z,102283.50
2023-03-03T21:29:35.618Z,102297.03
2023-03-03T21:32:11.646Z,102291.66
2023-03-03T21:34:41.520Z,102291.66
2023-03-03T21:37:12.495Z,102288.03
2023-03-03T21:39:43.813Z,102284.34
2023-03-03T21:42:28.955Z,102283.44
2023-03-03T21:44:56.561Z,102280.69
2023-03-03T21:47:28.506Z,102285.88
2023-03-03T21:49:55.361Z,102284.97
2023-03-03T21:52:22.698Z,102273.31
2023-03-03T21:54:51.724Z,102275.16
2023-03-03T21:57:19.235Z,102274.34
2023-03-03T21:59:46.264Z,102269.81
2023-03-03T22:02:13.405Z,102268.03
2023-03-03T22:04:40.989Z,102268.81
2023-03-03T22:07:09.627Z,102268.81
2023-03-03T22:09:38.070Z,102259.81
2023-03-03T22:12:07.347Z,102260.75
2023-03-03T22:14:34.431Z,102263.53
2023-03-03T22:17:01.513Z,102259.16
2023-03-03T22:19:28.365Z,102256.56
2023-03-03T22:21:55.279Z,102252.03
2023-03-03T22:24:22.083Z,102252.84
2023-03-03T22:26:48.973Z,102251.94
2023-03-03T22:29:17.211Z,102253.63
2023-03-03T22:31:44.390Z,102256.31
2023-03-03T22:34:11.285Z,102253.63
2023-03-03T22:36:38.082Z,102253.63
2023-03-03T22:39:04.946Z,102254.47
2023-03-03T22:41:31.819Z,102258.91
2023-03-03T22:43:58.885Z,102262.44
2023-03-03T22:46:26.201Z,102260.59
2023-03-03T22:48:54.262Z,102262.34
2023-03-03T22:51:22.217Z,102256.97
2023-03-03T22:53:49.257Z,102255.34
2023-03-03T22:56:16.095Z,102259.88
2023-03-03T22:58:42.913Z,102260.75
2023-03-03T23:01:09.682Z,102268.91
2023-03-03T23:03:37.253Z,102260.84
2023-03-03T23:06:04.701Z,102272.41
2023-03-03T23:08:31.501Z,102267.88
2023-03-03T23:10:58.348Z,102266.09
2023-03-03T23:13:27.078Z,102267.00
2023-03-03T23:15:53.990Z,102272.38
2023-03-03T23:18:20.794Z,102265.19
2023-03-03T23:20:47.633Z,102272.31
2023-03-03T23:23:14.439Z,102260.75
2023-03-03T23:25:41.243Z,102269.69
2023-03-03T23:28:08.215Z,102271.47
2023-03-03T23:30:35.044Z,102266.22
2023-03-03T23:33:01.889Z,102268.97
2023-03-03T23:35:28.777Z,102264.63
2023-03-03T23:37:55.667Z,102261.94
2023-03-03T23:40:22.705Z,102269.00
2023-03-03T23:42:50.048Z,102255.56
2023-03-03T23:45:18.038Z,102269.81
2023-03-03T23:47:45.097Z,102257.19
2023-03-03T23:50:13.495Z,102267.88
2023-03-03T23:52:40.827Z,102264.38
2023-03-03T23:55:08.557Z,102266.09
2023-03-03T23:57:35.370Z,102266.09
